• Join FlightAware (Why Join?)
  • Login
  • US Flag 
12:15AM EDT


 

Airport Tracker/Info


-or-


 

Live Flight TrackerFlight Track Log ✈ ASQ5884 ✈ 07-May-2013 ✈ KAVP - KORD

Flight Track Log - Related Links

Times and Time Zones

All times are in EDT time to prevent confusion due to time zone crossing. See the ASQ5884 flight status page for this flight to view local times or setup timezone preferences in your user account.

Time Position Orientation Groundspeed Altitude Reporting Facility
EDT Latitude Longitude Course Direction KTS MPH feet Rate Location/Type
05:59AM 41.3860 -75.8868 315° West  Level FlightAware Approximate
05:59AM 41.2897 -75.8544 307° West 242 278 6,200  Level New York Center
06:00AM 41.4462 -75.9756 304° West  Level FlightAware Approximate
06:00AM 41.3519 -75.9089 327° Northwest 267 307 8,000  Level New York Center
06:01AM 41.5043 -76.0668 315° West  Level FlightAware Approximate
06:01AM 41.4200 -75.9692 326° Northwest 277 319 8,000  Level New York Center
06:02AM 41.5649 -76.1557 312° West  Level FlightAware Approximate
06:02AM 41.4944 -76.0333 327° Northwest 277 319 9,100  Level New York Center
06:03AM 41.6213 -76.2496 307° West  Level FlightAware Approximate
06:03AM 41.5644 -76.0942 327° Northwest 288 331 10,000  Level New York Center
06:04AM 41.6755 -76.3459 307° West  Level FlightAware Approximate
06:04AM 41.6428 -76.1586 328° Northwest 336 387 10,600  Level New York Center
06:05AM 41.6942 -76.2656 303° West 349 402 12,800 1,920 Climbing New York Center
06:06AM 41.7356 -76.4025 292° West 354 407 14,500 1,380 Climbing New York Center
06:07AM 41.7675 -76.5192 290° West 365 420 15,700 1,440 Climbing New York Center
06:08AM 41.8031 -76.6475 290° West 370 426 17,500 1,200 Climbing New York Center
06:09AM 41.8669 -76.8772 291° West 388 447 18,900 840 Climbing Cleveland Center
06:10AM 41.9069 -77.0200 291° West 400 460 19,800 900 Climbing Cleveland Center
06:11AM 41.9467 -77.1658 290° West 412 474 20,700 900 Climbing Cleveland Center
06:12AM 41.9886 -77.3144 291° West 422 486 21,600 900 Climbing Cleveland Center
06:13AM 42.0283 -77.4689 289° West 422 486 22,500 900 Climbing Cleveland Center
06:14AM 42.0678 -77.6181 290° West 422 486 23,400 900 Climbing Cleveland Center
06:15AM 42.1092 -77.7731 290° West 427 491 24,300 780 Climbing Cleveland Center
06:16AM 42.1503 -77.9225 290° West 427 491 25,000 600 Climbing Cleveland Center
06:17AM 42.1892 -78.0778 289° West 427 491 25,500 900 Climbing Cleveland Center
06:18AM 42.2278 -78.2306 289° West 432 497 26,900 1,200 Climbing Cleveland Center
06:19AM 42.2661 -78.3778 289° West 432 497 27,900 1,200 Climbing Cleveland Center
06:20AM 42.3042 -78.5225 290° West 421 484 29,400 1,440 Climbing Cleveland Center
06:21AM 42.3403 -78.6703 288° West 415 478 30,800 1,380 Climbing Cleveland Center
06:22AM 42.3778 -78.8125 290° West 410 472 32,200 1,440 Climbing Cleveland Center
06:23AM 42.4156 -78.9717 288° West 410 472 33,700 900 Climbing Cleveland Center
06:24AM 42.4531 -79.1142 290° West 404 465 34,000 120 Climbing Cleveland Center
06:25AM 42.4925 -79.2711 289° West 417 480 34,000 300 Level Cleveland Center
06:26AM 42.5025 -79.4425 275° West 435 501 34,700 900 Climbing Cleveland Center
06:27AM 42.5083 -79.6086 273° West 449 517 35,800 600 Climbing Cleveland Center
06:28AM 42.5178 -79.7747 274° West 449 517 36,000 60 Climbing Cleveland Center
06:29AM 42.5272 -79.9464 274° West 449 517 36,000  Level Cleveland Center
06:30AM 42.5281 -80.0931 270° West 449 517 36,000  Level Cleveland Center
06:31AM 42.5369 -80.2564 274° West 437 503 36,000  Level Cleveland Center
06:32AM 42.5414 -80.4197 272° West 437 503 36,000  Level Cleveland Center
06:33AM 42.5497 -80.6058 274° West 442 509 36,000  Level Cleveland Center
06:34AM 42.5558 -80.7747 273° West 442 509 36,000  Level Cleveland Center
06:35AM 42.5617 -80.9469 273° West 454 522 36,000  Level Cleveland Center
06:36AM 42.5694 -81.1161 274° West 459 528 36,000  Level Cleveland Center
06:37AM 42.5769 -81.2853 274° West 459 528 36,000  Level Cleveland Center
06:38AM 42.5842 -81.4517 273° West 454 522 36,000  Level Cleveland Center
06:39AM 42.6119 -81.6158 283° West 454 522 36,000  Level Cleveland Center
06:40AM 42.6417 -81.7772 284° West 454 522 36,000  Level Cleveland Center
06:41AM 42.6689 -81.9442 283° West 454 522 36,000  Level Cleveland Center
06:42AM 42.6981 -82.1086 284° West 454 522 36,000  Level Cleveland Center
06:43AM 42.7269 -82.2789 283° West 454 522 36,000  Level Cleveland Center
06:44AM 42.7558 -82.4408 284° West 454 522 36,000  Level Cleveland Center
06:45AM 42.7906 -82.6061 286° West 448 516 36,000  Level Cleveland Center
06:46AM 42.8483 -82.7553 298° West 448 516 36,000  Level Cleveland Center
06:47AM 42.9078 -82.9019 299° West 443 510 36,000  Level Cleveland Center
06:48AM 42.9631 -83.0514 297° West 443 510 36,000  Level Cleveland Center
06:49AM 42.9803 -83.2197 278° West 443 510 36,000 -420 Level Cleveland Center
06:50AM 42.9764 -83.3897 268° West 443 510 35,200 -900 Descending Cleveland Center
06:51AM 42.9719 -83.5569 268° West 448 516 34,300 -1,020 Descending Cleveland Center
06:52AM 42.9675 -83.7300 268° West 448 516 33,200 -1,140 Descending Cleveland Center
06:53AM 42.9503 -83.8992 262° West 454 522 32,100 -600 Descending Cleveland Center
06:54AM 42.9347 -84.0686 263° West 459 528 32,000 -60 Descending Cleveland Center
06:55AM 42.9169 -84.2464 262° West 464 534 32,000  Level Cleveland Center
06:57AM 42.8936 -84.4894 263° West 463 533 32,000  Level Chicago Center
06:58AM 42.8769 -84.6633 263° West 463 533 32,000  Level Chicago Center
06:59AM 42.8578 -84.8347 261° West 461 531 32,000  Level Chicago Center
07:00AM 42.8400 -85.0078 262° West 461 531 32,000  Level Chicago Center
07:01AM 42.8217 -85.1811 262° West 462 532 32,000 -60 Level Chicago Center
07:02AM 42.8025 -85.3531 261° West 461 531 31,900 -960 Descending Chicago Center
07:03AM 42.7819 -85.5242 261° West 458 527 30,100 -1,980 Descending Chicago Center
07:04AM 42.7514 -85.6964 256° West 463 533 27,900 -2,460 Descending Chicago Center
07:05AM 42.7194 -85.8686 256° West 467 537 25,100 -2,760 Descending Chicago Center
07:06AM 42.6914 -86.0308 257° West 444 511 22,400 -2,340 Descending Chicago Center
07:07AM 42.6628 -86.1839 256° West 420 483 20,500 -1,200 Descending Chicago Center
07:08AM 42.6347 -86.3308 255° West 404 465 20,000 -300 Descending Chicago Center
07:09AM 42.6075 -86.4764 256° West 397 457 20,000  Level Chicago Center
07:10AM 42.5803 -86.6231 256° West 401 461 20,000 -1,140 Level Chicago Center
07:11AM 42.5456 -86.7886 254° West 399 459 17,700 -2,280 Descending Chicago Center
07:12AM 42.5131 -86.9061 249° West 390 449 15,400 -2,460 Descending Chicago Center
07:13AM 42.4758 -87.0383 249° West 378 435 12,800 -2,400 Descending Chicago Center
07:14AM 42.4331 -87.1942 250° West 369 425 10,600 -1,380 Descending Chicago Center
07:15AM 42.3975 -87.3214 249° West 364 419 10,000 -300 Descending Chicago Center
07:16AM 42.3675 -87.4339 250° West 353 406 10,000  Level Chicago Center
07:17AM 42.3225 -87.5494 242° Southwest 355 409 10,000  Level Chicago Center
07:18AM 42.2456 -87.6319 218° Southwest 354 407 10,000 -60 Level Chicago Center
07:19AM 42.1633 -87.7222 219° Southwest 314 361 9,900 -780 Descending Chicago Center
07:20AM 42.1167 -87.7667 215° Southwest 277 319 8,600 -1,560 Descending Chicago TRACON
07:21AM 42.0833 -87.8667 246° West 263 303 7,000 -900 Descending Chicago TRACON
07:22AM 42.0500 -87.9500 242° Southwest 286 329 7,000 -300 Level Chicago TRACON
07:23AM 42.0500 -88.0500 270° West 234 269 6,500 -720 Descending Chicago TRACON
07:24AM 42.0422 -88.1439 264° West 224 258 5,300 -900 Descending Chicago Center
07:25AM 42.0336 -88.2108 260° West 199 229 4,400 -660 Descending Chicago Center
07:26AM 41.9739 -88.2047 176° South 187 215 4,000 -360 Descending Chicago Center
07:27AM 41.9678 -88.1367 97° East 186 214 3,700 -600 Descending Chicago Center
07:28AM 41.9667 -88.0833 92° East 179 206 3,100 -1,020 Descending Chicago TRACON
07:29AM 41.9667 -88.0333 90° East 172 198 2,200 -1,020 Descending Chicago TRACON